• Join FlightAware (Why Join?)
  • Login
  • US Flag 
09:42PM EST


 

Airport Tracker/Info


-or-


 

Live Flight TrackerFlight Track Log ✈ SEJ106 ✈ 23-Apr-2013 ✈ VOMM / MAA - VABB / BOM

Flight Track Log - Related Links

Times and Time Zones

All times are in EDT time to prevent confusion due to time zone crossing. See the SEJ106 flight status page for this flight to view local times or setup timezone preferences in your user account.

Time Position Orientation Groundspeed Altitude Reporting Facility
EDT Latitude Longitude Course Direction KTS MPH feet Rate Location/Type
08:29PM 12.9820 80.1480 316° Northwest 161 185 900  Level FlightAware
08:29PM 12.9810 80.1270 267° West 190 219 2,000 2,400 Climbing FlightAware
08:29PM 12.9890 80.1200 320° Northwest 198 228 2,500 2,580 Climbing FlightAware
08:30PM 13.0050 80.1190 357° North 205 236 3,300 2,880 Climbing FlightAware
08:30PM 13.0210 80.1220 10° North 205 236 4,200 2,400 Climbing FlightAware
08:31PM 13.0550 80.1050 334° Northwest 242 278 5,500 2,460 Climbing FlightAware
08:31PM 13.0970 80.0810 331° Northwest 280 322 7,100 3,060 Climbing FlightAware
08:32PM 13.1230 80.0660 331° Northwest 273 314 8,600 2,940 Climbing FlightAware
08:32PM 13.1760 80.0330 329° Northwest 304 350 10,800 2,700 Climbing FlightAware
08:33PM 13.2390 79.9950 330° Northwest 328 377 13,100 2,700 Climbing FlightAware
08:34PM 13.3020 79.9580 330° Northwest 353 406 15,100 2,580 Climbing FlightAware
08:35PM 13.3510 79.9280 329° Northwest 361 415 16,600 960 Climbing FlightAware
08:35PM 13.4190 79.8860 329° Northwest 361 415 16,600  Level FlightAware
08:36PM 13.4680 79.8560 329° Northwest 361 415 16,600  Level FlightAware
08:37PM 13.5170 79.8260 329° Northwest 361 415 16,600  Level FlightAware
08:37PM 13.5650 79.7960 329° Northwest 361 415 16,600  Level FlightAware
08:38PM 13.6140 79.7660 329° Northwest 361 415 16,600 2,040 Level FlightAware
08:41PM 13.7939 79.5492 311° West  Level Estimated
08:42PM 13.8693 79.4582 310° West  Level Estimated
08:43PM 13.9446 79.3671 310° West  Level Estimated
08:44PM 14.0200 79.2759 310° West  Level Estimated
08:45PM 14.0953 79.1847 310° West  Level Estimated
08:46PM 14.1706 79.0934 310° West  Level Estimated
08:47PM 14.2458 79.0020 310° West  Level Estimated
08:48PM 14.3210 78.9106 310° West  Level Estimated
08:49PM 14.3962 78.8191 310° West  Level Estimated
08:49PM 14.3810 78.6640 310° West 435 501 39,400  Level FlightAware
08:49PM 14.4320 78.5910 306° West 435 501 39,500 60 Climbing FlightAware
08:50PM 14.4720 78.5340 306° West 435 501 39,500  Level FlightAware
08:51PM 14.5130 78.4770 307° West 435 501 39,500  Level FlightAware
08:51PM 14.5530 78.4200 306° West 435 501 39,500 300 Level FlightAware
08:52PM 14.6360 78.3050 307° West 436 502 40,000 300 Climbing FlightAware
08:53PM 14.6790 78.2430 306° West 436 502 40,000  Level FlightAware
08:54PM 14.7190 78.1860 306° West 436 502 40,000  Level FlightAware
08:54PM 14.7600 78.1290 307° West 436 502 40,000  Level FlightAware
08:55PM 14.8100 78.0570 306° West 436 502 40,000  Level FlightAware
08:56PM 14.8500 78.0000 306° West 436 502 40,000  Level FlightAware
08:56PM 14.8910 77.9420 306° West 436 502 40,000 -480 Level FlightAware
08:57PM 14.9790 77.8190 307° West 39,100 -720 Descending FlightAware
08:58PM 15.0250 77.7510 305° West 416 479 39,000 -600 Descending FlightAware
08:58PM 15.0640 77.6970 307° West 410 472 38,300 -720 Descending FlightAware
08:59PM 15.1220 77.6150 306° West 410 472 38,000 -240 Descending FlightAware
09:00PM 15.1570 77.5650 306° West 410 472 38,000  Level FlightAware
09:01PM 15.2060 77.4950 306° West 410 472 38,000  Level FlightAware
09:02PM 15.2750 77.3950 306° West 411 473 38,000  Level FlightAware
09:02PM 15.3350 77.3100 306° West 415 478 38,000  Level FlightAware
09:03PM 15.3800 77.2470 307° West 418 481 38,000  Level FlightAware
09:04PM 15.4360 77.1660 306° West 420 483 38,000  Level FlightAware
09:04PM 15.4750 77.1110 306° West 419 482 38,000  Level FlightAware
09:05PM 15.5330 77.0270 306° West 418 481 38,000  Level FlightAware
09:06PM 15.5780 76.9630 306° West 417 480 38,000  Level FlightAware
09:07PM 15.6420 76.8690 305° West 416 479 38,000  Level FlightAware
09:07PM 15.6780 76.8180 306° West 414 476 38,000  Level FlightAware
09:08PM 15.7480 76.7160 305° West 411 473 38,000  Level FlightAware
09:09PM 15.8140 76.6220 306° West 407 468 38,000  Level FlightAware
09:10PM 15.8580 76.5590 306° West 405 466 38,000  Level FlightAware
09:11PM 15.9050 76.4900 305° West 402 463 38,000  Level FlightAware
09:12PM 15.9460 76.4310 306° West 400 460 38,000  Level FlightAware
09:12PM 15.9930 76.3620 305° West 396 456 38,000  Level FlightAware
09:13PM 16.0310 76.3080 306° West 398 458 38,000  Level FlightAware
09:14PM 16.0770 76.2400 305° West 401 461 38,000  Level FlightAware
09:14PM 16.1320 76.1600 306° West 405 466 38,000  Level FlightAware
09:15PM 16.1860 76.0820 306° West 401 461 38,000  Level FlightAware
09:16PM 16.2480 75.9910 305° West 402 463 38,000  Level FlightAware
09:17PM 16.2980 75.9180 306° West 405 466 38,000  Level FlightAware
09:18PM 16.3320 75.8670 305° West 405 466 38,000  Level FlightAware
09:19PM 16.4110 75.7520 306° West 404 465 38,000  Level FlightAware
09:19PM 16.4470 75.6980 305° West 404 465 38,000  Level FlightAware
09:20PM 16.4840 75.6440 306° West 404 465 38,000  Level FlightAware
09:21PM 16.5590 75.5360 306° West 405 466 38,000  Level FlightAware
09:22PM 16.6040 75.4680 305° West 405 466 38,000  Level FlightAware
09:23PM 16.6410 75.4130 305° West 405 466 38,000  Level FlightAware
09:23PM 16.6770 75.3590 305° West 405 466 38,000  Level FlightAware
09:24PM 16.7510 75.2750 313° West 400 460 38,000  Level FlightAware
09:25PM 16.7960 75.2150 308° West 400 460 38,000  Level FlightAware
09:25PM 16.8350 75.1630 308° West 400 460 38,000  Level FlightAware
09:26PM 16.8830 75.0980 308° West 400 460 38,000  Level FlightAware
09:27PM 16.9220 75.0460 308° West 400 460 38,000  Level FlightAware
09:27PM 16.9610 74.9940 308° West 400 460 38,000  Level FlightAware
09:28PM 17.0000 74.9420 308° West 400 460 38,000  Level FlightAware
09:29PM 17.0480 74.8780 308° West 400 460 38,000  Level FlightAware
09:30PM 17.1730 74.7620 318° Northwest 400 460 38,000  Level FlightAware
09:30PM 17.2230 74.7090 315° West 400 460 38,000  Level FlightAware
09:31PM 17.2830 74.6460 315° West 400 460 38,000  Level FlightAware
09:32PM 17.3350 74.5900 314° West 400 460 38,000  Level FlightAware
09:32PM 17.3920 74.5290 314° West 400 460 38,000  Level FlightAware
09:33PM 17.4460 74.4720 315° West 401 461 38,000 -540 Level FlightAware
09:34PM 17.5040 74.4100 314° West 406 467 37,300 -1,020 Descending FlightAware
09:34PM 17.5570 74.3540 315° West 407 468 36,600 -1,020 Descending FlightAware
09:35PM 17.6090 74.2980 314° West 409 471 36,000 -960 Descending FlightAware
09:36PM 17.6710 74.2310 314° West 417 480 35,300 -1,020 Descending FlightAware
09:37PM 17.7230 74.1760 315° West 415 478 34,600 -1,380 Descending FlightAware
09:37PM 17.7770 74.1180 314° West 409 471 33,500 -1,800 Descending FlightAware
09:38PM 17.8370 74.0540 315° West 410 472 32,100 -1,980 Descending FlightAware
09:39PM 17.8910 73.9960 314° West 412 474 30,700 -2,340 Descending FlightAware
09:39PM 17.9510 73.9320 315° West 405 466 28,800 -2,580 Descending FlightAware
09:40PM 18.0040 73.8750 314° West 404 465 27,100 -2,580 Descending FlightAware
09:41PM 18.0610 73.8140 315° West 400 460 25,200 -2,340 Descending FlightAware
09:41PM 18.1120 73.7580 314° West 395 455 23,800 -2,280 Descending FlightAware
09:42PM 18.1640 73.7030 315° West 393 452 22,200 -2,520 Descending FlightAware
09:43PM 18.2200 73.6430 315° West 384 442 20,300 -2,400 Descending FlightAware
09:44PM 18.2700 73.5890 314° West 371 427 18,800 -1,680 Descending FlightAware
09:44PM 18.3160 73.5380 314° West 344 396 18,100 -1,080 Descending FlightAware
09:45PM 18.3630 73.4870 314° West 322 371 17,300 -1,200 Descending FlightAware
09:46PM 18.4040 73.4430 314° West 312 359 16,400 -1,440 Descending FlightAware
09:46PM 18.4440 73.4000 314° West 304 350 15,400 -1,680 Descending FlightAware
09:47PM 18.4880 73.3520 314° West 302 348 14,100 -1,680 Descending FlightAware
09:48PM 18.5320 73.3050 315° West 297 342 12,900 -1,140 Descending FlightAware
09:48PM 18.5670 73.2660 313° West 273 314 12,500 -840 Descending FlightAware
09:49PM 18.5980 73.2370 318° Northwest 263 303 11,900 -1,140 Descending FlightAware
09:49PM 18.6240 73.2310 348° North 251 289 11,500 -1,440 Descending FlightAware
09:50PM 18.6710 73.2230 351° North 251 289 10,500 -1,380 Descending FlightAware
09:51PM 18.7020 73.2170 350° North 248 285 9,900 -960 Descending FlightAware
09:51PM 18.7450 73.2100 351° North 248 285 9,400 -480 Descending FlightAware
09:52PM 18.7740 73.2040 349° North 248 285 9,400  Level FlightAware
09:52PM 18.7930 73.2010 351° North 248 285 9,400  Level FlightAware
09:53PM 18.8220 73.1950 349° North 248 285 9,400  Level FlightAware
09:55PM 18.9713 73.0121 311° West  Level Estimated
09:56PM 19.0471 72.9190 311° West  Level Estimated
09:57PM 19.0887 72.8679 311° West  Level Estimated
09:58PM 19.0887 72.8679 193° South  Level Estimated
09:59PM 19.0887 72.8679 193° South  Level Estimated
10:00PM 19.0887 72.8679 193° South  Level Estimated
10:01PM 19.0887 72.8679 193° South  Level Estimated
10:02PM 19.0887 72.8679 193° South  Level Estimated
10:03PM 19.0887 72.8679 193° South  Level Estimated
10:04PM 19.0887 72.8679 193° South  Level Estimated
10:05PM 19.0887 72.8679 193° South  Level Estimated